Time;durP1;ratioP1;P1;durP2;ratioP2;P2;SDS_P1;SDS_P2;PMS_P1;PMS_P2;Temp;Humidity;BMP_temperature;BMP_pressure;BME280_temperature;BME280_humidity;BME280_pressure;Samples;Min_cycle;Max_cycle;Signal;HPM_P1;HPM_P2
2023/12/03 00:01:46;;;;;;;8.65;6.07;;;;;;;;;;5010906;28;20041;-81
2023/12/03 00:04:16;;;;;;;9.27;6.70;;;;;;;;;;5042639;28;20495;-81
2023/12/03 00:06:43;;;;;;;9.05;6.25;;;;;;;;;;5025272;28;20507;-81
2023/12/03 00:09:12;;;;;;;9.20;6.85;;;;;;;;;;5039453;28;20053;-81
2023/12/03 00:11:39;;;;;;;11.88;6.88;;;;;;;;;;5017868;28;20107;-81
2023/12/03 00:14:08;;;;;;;9.02;7.78;;;;;;;;;;5042965;28;20048;-81
2023/12/03 00:16:36;;;;;;;7.20;5.45;;;;;;;;;;5037104;28;20045;-81
2023/12/03 00:19:03;;;;;;;9.88;7.78;;;;;;;;;;5026584;28;20048;-81
2023/12/03 00:21:30;;;;;;;10.95;7.85;;;;;;;;;;5042501;28;20075;-81
2023/12/03 00:23:57;;;;;;;10.25;7.63;;;;;;;;;;5058727;28;20045;-81
2023/12/03 00:26:26;;;;;;;10.13;8.02;;;;;;;;;;5026083;28;20403;-81
2023/12/03 00:28:53;;;;;;;7.93;6.88;;;;;;;;;;5027191;28;20642;-81
2023/12/03 00:31:20;;;;;;;12.10;8.23;;;;;;;;;;5018065;28;20389;-81
2023/12/03 00:33:48;;;;;;;9.23;8.25;;;;;;;;;;5023071;28;20045;-81
2023/12/03 00:36:15;;;;;;;8.60;7.10;;;;;;;;;;5024521;28;20416;-81
2023/12/03 00:38:44;;;;;;;10.43;7.55;;;;;;;;;;5046777;28;20037;-81
2023/12/03 00:41:11;;;;;;;11.52;8.68;;;;;;;;;;5033993;28;20061;-81
2023/12/03 00:43:40;;;;;;;14.27;8.93;;;;;;;;;;5022430;28;20050;-81
2023/12/03 00:46:10;;;;;;;12.45;7.40;;;;;;;;;;5038932;28;20056;-81
2023/12/03 00:48:39;;;;;;;9.40;7.18;;;;;;;;;;5043029;28;20060;-81
2023/12/03 00:51:09;;;;;;;11.93;8.25;;;;;;;;;;5022827;28;20045;-81
2023/12/03 00:53:38;;;;;;;10.85;8.60;;;;;;;;;;5047470;28;20060;-81
2023/12/03 00:56:09;;;;;;;7.55;6.78;;;;;;;;;;5039690;28;20060;-81
2023/12/03 00:58:36;;;;;;;10.90;9.77;;;;;;;;;;5026315;28;20041;-81
2023/12/03 01:01:05;;;;;;;12.50;9.32;;;;;;;;;;5040928;28;20056;-81
2023/12/03 01:03:32;;;;;;;12.40;7.85;;;;;;;;;;5057103;28;20364;-81
2023/12/03 01:06:01;;;;;;;10.50;7.60;;;;;;;;;;5056083;28;20045;-81
2023/12/03 01:08:28;;;;;;;12.32;8.20;;;;;;;;;;5041879;28;20051;-81
2023/12/03 01:10:58;;;;;;;10.10;8.60;;;;;;;;;;5022673;28;20072;-81
2023/12/03 01:13:25;;;;;;;11.90;8.55;;;;;;;;;;5056104;28;20056;-81
2023/12/03 01:15:52;;;;;;;13.45;8.85;;;;;;;;;;5029000;28;20407;-81
2023/12/03 01:18:21;;;;;;;11.25;8.00;;;;;;;;;;5026805;28;20045;-81
2023/12/03 01:20:50;;;;;;;9.82;7.50;;;;;;;;;;5028002;28;20049;-81
2023/12/03 01:23:20;;;;;;;13.60;9.02;;;;;;;;;;5041375;28;20061;-81
2023/12/03 01:25:49;;;;;;;11.50;10.32;;;;;;;;;;5019561;28;20089;-81
2023/12/03 01:28:20;;;;;;;9.15;7.57;;;;;;;;;;5040254;28;20044;-81
2023/12/03 01:30:49;;;;;;;8.93;7.95;;;;;;;;;;5058005;28;20060;-81
2023/12/03 01:33:17;;;;;;;9.70;7.88;;;;;;;;;;5044806;28;20055;-81
2023/12/03 01:35:45;;;;;;;14.50;10.75;;;;;;;;;;5030254;28;20048;-81
2023/12/03 01:38:15;;;;;;;15.82;8.98;;;;;;;;;;5031649;28;20128;-81
2023/12/03 01:40:53;;;;;;;11.53;9.07;;;;;;;;;;5125787;22;20056;-81
2023/12/03 01:43:34;;;;;;;11.95;9.48;;;;;;;;;;5029819;28;20041;-81
2023/12/03 01:46:01;;;;;;;14.55;8.70;;;;;;;;;;5018744;28;20065;-81
2023/12/03 01:48:29;;;;;;;12.25;7.88;;;;;;;;;;5003964;28;20045;-81
2023/12/03 01:50:58;;;;;;;10.80;9.00;;;;;;;;;;4999730;28;20506;-81
2023/12/03 01:53:25;;;;;;;13.10;9.18;;;;;;;;;;5011137;28;20049;-81
2023/12/03 01:56:24;;;;;;;12.65;9.50;;;;;;;;;;5021504;28;20052;-81
2023/12/03 01:59:16;;;;;;;11.23;8.57;;;;;;;;;;5022018;28;20049;-80
2023/12/03 02:01:58;;;;;;;10.82;8.35;;;;;;;;;;4984881;28;20042;-80
2023/12/03 02:04:26;;;;;;;13.68;9.80;;;;;;;;;;5020754;28;20045;-80
2023/12/03 02:06:55;;;;;;;9.98;8.40;;;;;;;;;;5011189;28;20054;-80
2023/12/03 02:09:22;;;;;;;10.00;8.73;;;;;;;;;;5030352;28;20049;-80
2023/12/03 02:11:49;;;;;;;15.13;11.20;;;;;;;;;;5003435;28;20050;-80
2023/12/03 02:14:17;;;;;;;13.90;10.50;;;;;;;;;;5008762;28;20053;-80
2023/12/03 02:16:46;;;;;;;13.10;9.70;;;;;;;;;;5011191;28;20063;-80
2023/12/03 02:19:13;;;;;;;13.40;11.05;;;;;;;;;;5027884;28;20041;-80
2023/12/03 02:21:42;;;;;;;14.30;9.32;;;;;;;;;;5027391;28;20395;-80
2023/12/03 02:24:10;;;;;;;13.20;10.15;;;;;;;;;;5007790;28;20050;-80
2023/12/03 02:26:38;;;;;;;11.68;9.02;;;;;;;;;;5009204;28;20053;-80
2023/12/03 02:29:05;;;;;;;12.27;9.02;;;;;;;;;;5009945;28;20046;-80
2023/12/03 02:31:32;;;;;;;9.95;9.00;;;;;;;;;;5009018;28;20052;-80
2023/12/03 02:34:08;;;;;;;15.38;11.70;;;;;;;;;;5025983;28;20046;-80
2023/12/03 02:36:35;;;;;;;12.55;11.00;;;;;;;;;;5012509;28;20050;-80
2023/12/03 02:39:03;;;;;;;13.23;9.43;;;;;;;;;;5014101;28;20056;-80
2023/12/03 02:41:32;;;;;;;14.63;10.18;;;;;;;;;;5013430;28;20062;-80
2023/12/03 02:43:59;;;;;;;13.52;9.98;;;;;;;;;;5009526;28;20322;-80
2023/12/03 02:46:26;;;;;;;13.35;9.57;;;;;;;;;;5047811;28;20041;-80
2023/12/03 02:48:54;;;;;;;13.45;10.30;;;;;;;;;;5014999;28;20054;-80
2023/12/03 02:51:21;;;;;;;14.25;11.48;;;;;;;;;;5043531;28;20396;-80
2023/12/03 02:53:49;;;;;;;13.25;10.10;;;;;;;;;;5025605;28;20064;-80
2023/12/03 02:56:17;;;;;;;15.32;10.07;;;;;;;;;;5031340;28;20046;-80
2023/12/03 02:58:46;;;;;;;12.75;10.55;;;;;;;;;;5037392;28;20060;-80
2023/12/03 03:01:13;;;;;;;15.60;11.15;;;;;;;;;;5013790;28;20056;-80
2023/12/03 03:43:12;;;;;;;10.38;8.82;;;;;;;;;;5553217;22;20045;-80
2023/12/03 03:45:39;;;;;;;18.35;12.57;;;;;;;;;;5038935;28;20422;-80
2023/12/03 03:48:06;;;;;;;17.40;12.57;;;;;;;;;;5049912;28;20050;-80
2023/12/03 03:50:34;;;;;;;14.38;9.95;;;;;;;;;;5040325;28;20064;-80
2023/12/03 03:53:01;;;;;;;14.40;9.88;;;;;;;;;;5039769;28;20049;-80
2023/12/03 03:55:28;;;;;;;16.10;10.50;;;;;;;;;;5026055;28;20079;-80
2023/12/03 03:57:56;;;;;;;15.60;11.18;;;;;;;;;;5024384;28;20071;-80
2023/12/03 04:00:24;;;;;;;18.48;11.63;;;;;;;;;;5016612;28;20049;-80
2023/12/03 04:02:52;;;;;;;20.05;14.85;;;;;;;;;;5022571;28;20506;-80
2023/12/03 04:05:19;;;;;;;15.20;13.23;;;;;;;;;;5033232;28;20061;-80
2023/12/03 04:07:46;;;;;;;17.95;12.18;;;;;;;;;;5025092;28;20547;-80
2023/12/03 04:10:14;;;;;;;16.58;10.93;;;;;;;;;;5044727;28;20052;-80
2023/12/03 04:12:42;;;;;;;19.05;11.57;;;;;;;;;;5045424;28;20044;-80
2023/12/03 04:37:47;;;;;;;20.80;12.60;;;;;;;;;;4991364;28;20048;-80
2023/12/03 04:40:15;;;;;;;15.48;10.55;;;;;;;;;;5007216;28;20058;-80
2023/12/03 04:42:42;;;;;;;17.25;12.23;;;;;;;;;;4971040;28;20050;-80
2023/12/03 05:07:12;;;;;;;16.52;11.10;;;;;;;;;;4436539;23;21179;-81
2023/12/03 05:09:41;;;;;;;19.27;15.15;;;;;;;;;;4993952;28;20050;-80
2023/12/03 05:12:08;;;;;;;14.10;10.38;;;;;;;;;;4967954;28;20050;-80
2023/12/03 05:14:37;;;;;;;20.02;13.32;;;;;;;;;;4951449;28;20057;-80
2023/12/03 05:17:04;;;;;;;21.33;12.23;;;;;;;;;;4975037;28;20047;-80
2023/12/03 05:19:31;;;;;;;17.90;11.77;;;;;;;;;;4941283;28;20592;-81
2023/12/03 05:21:59;;;;;;;24.90;14.63;;;;;;;;;;4982553;28;20047;-80
2023/12/03 05:24:26;;;;;;;21.70;12.82;;;;;;;;;;4948322;28;20493;-80
2023/12/03 05:26:55;;;;;;;16.13;11.32;;;;;;;;;;4955299;28;20055;-81
2023/12/03 05:29:24;;;;;;;17.38;11.30;;;;;;;;;;4941757;28;20059;-79
2023/12/03 05:31:52;;;;;;;23.25;15.27;;;;;;;;;;4937479;28;20055;-79
2023/12/03 05:34:19;;;;;;;17.33;11.35;;;;;;;;;;4957473;28;20054;-79
2023/12/03 05:36:46;;;;;;;20.17;12.13;;;;;;;;;;4940804;28;20047;-79
2023/12/03 05:39:14;;;;;;;17.25;11.70;;;;;;;;;;4940170;28;20051;-79
2023/12/03 05:41:41;;;;;;;20.42;12.68;;;;;;;;;;4963050;28;20050;-79
2023/12/03 05:44:10;;;;;;;22.13;11.90;;;;;;;;;;4945281;28;20054;-79
2023/12/03 05:46:41;;;;;;;22.02;13.15;;;;;;;;;;4944889;28;20058;-79
2023/12/03 05:49:08;;;;;;;16.23;12.38;;;;;;;;;;4942167;28;20051;-79
2023/12/03 05:51:36;;;;;;;12.70;10.38;;;;;;;;;;4967644;28;20062;-79
2023/12/03 05:54:03;;;;;;;18.88;11.18;;;;;;;;;;4931440;28;20058;-79
2023/12/03 05:56:31;;;;;;;14.88;11.88;;;;;;;;;;4940792;28;20394;-79
2023/12/03 05:58:58;;;;;;;18.35;12.32;;;;;;;;;;4953344;28;20513;-79
2023/12/03 06:01:27;;;;;;;19.13;14.75;;;;;;;;;;4940032;28;20039;-79
2023/12/03 06:03:54;;;;;;;15.48;11.25;;;;;;;;;;4969920;28;20062;-79
2023/12/03 06:06:21;;;;;;;15.57;12.15;;;;;;;;;;4940335;28;20066;-79
2023/12/03 06:08:51;;;;;;;21.95;13.27;;;;;;;;;;4959685;28;20057;-79
2023/12/03 06:11:18;;;;;;;18.80;15.23;;;;;;;;;;4963567;28;20058;-79
2023/12/03 06:13:45;;;;;;;18.63;13.05;;;;;;;;;;4966565;28;20046;-79
2023/12/03 06:16:13;;;;;;;23.38;11.27;;;;;;;;;;4984199;28;20057;-79
2023/12/03 06:18:43;;;;;;;18.77;12.80;;;;;;;;;;4980640;28;20501;-79
2023/12/03 06:21:11;;;;;;;18.73;12.40;;;;;;;;;;4995474;28;20046;-79
2023/12/03 06:23:38;;;;;;;17.25;11.50;;;;;;;;;;4982456;28;20522;-79
2023/12/03 06:26:07;;;;;;;17.73;11.60;;;;;;;;;;4970523;28;20054;-79
2023/12/03 06:28:34;;;;;;;17.02;12.00;;;;;;;;;;4989625;28;20061;-79
2023/12/03 06:31:02;;;;;;;17.05;11.18;;;;;;;;;;4976799;28;20053;-79
2023/12/03 06:33:29;;;;;;;20.65;11.73;;;;;;;;;;4981965;28;20056;-79
2023/12/03 06:35:58;;;;;;;16.27;12.45;;;;;;;;;;4963773;28;20053;-79
2023/12/03 06:38:25;;;;;;;19.85;13.55;;;;;;;;;;4961516;28;20061;-79
2023/12/03 06:40:53;;;;;;;21.80;14.00;;;;;;;;;;4996299;28;20040;-79
2023/12/03 06:43:21;;;;;;;22.30;13.63;;;;;;;;;;5002553;28;20054;-79
2023/12/03 06:45:48;;;;;;;20.35;13.40;;;;;;;;;;5000232;28;20386;-79
2023/12/03 06:48:15;;;;;;;17.20;12.25;;;;;;;;;;4970808;28;20070;-79
2023/12/03 07:21:43;;;;;;;24.38;13.07;;;;;;;;;;5549473;22;20041;-80
2023/12/03 07:24:11;;;;;;;17.70;11.80;;;;;;;;;;5032707;28;20049;-80
2023/12/03 07:26:38;;;;;;;15.50;10.20;;;;;;;;;;5019416;28;20041;-80
2023/12/03 07:29:05;;;;;;;15.95;10.68;;;;;;;;;;5040037;28;20053;-80
2023/12/03 07:31:32;;;;;;;17.90;14.02;;;;;;;;;;4999950;28;20053;-80
2023/12/03 07:34:00;;;;;;;18.08;12.38;;;;;;;;;;5016810;28;20041;-80
2023/12/03 07:36:27;;;;;;;16.20;12.60;;;;;;;;;;5003950;28;20065;-80
2023/12/03 07:38:56;;;;;;;18.05;12.93;;;;;;;;;;5022497;23;20040;-78
2023/12/03 07:41:23;;;;;;;19.75;13.32;;;;;;;;;;5015359;28;20046;-78
2023/12/03 07:43:51;;;;;;;24.13;13.82;;;;;;;;;;5048622;28;20045;-78
2023/12/03 07:46:19;;;;;;;21.65;12.23;;;;;;;;;;5027164;28;20112;-78
2023/12/03 07:48:46;;;;;;;17.58;11.60;;;;;;;;;;5030756;28;20507;-78
2023/12/03 07:51:15;;;;;;;13.57;10.38;;;;;;;;;;5040606;28;20046;-78
2023/12/03 07:53:43;;;;;;;21.58;14.57;;;;;;;;;;5032121;28;20514;-78
2023/12/03 07:56:11;;;;;;;20.95;11.95;;;;;;;;;;5049776;28;20052;-80
2023/12/03 07:58:39;;;;;;;20.90;11.65;;;;;;;;;;5043089;28;20037;-80
2023/12/03 08:01:09;;;;;;;18.42;12.90;;;;;;;;;;5030175;28;20037;-81
2023/12/03 08:03:36;;;;;;;22.70;13.70;;;;;;;;;;5073636;28;20041;-81
2023/12/03 08:06:07;;;;;;;16.95;12.50;;;;;;;;;;5049957;28;20059;-79
2023/12/03 08:08:34;;;;;;;17.58;11.38;;;;;;;;;;5055451;28;20036;-80
2023/12/03 08:11:04;;;;;;;14.75;11.93;;;;;;;;;;5054844;28;20052;-79
2023/12/03 08:13:35;;;;;;;21.02;14.93;;;;;;;;;;5072534;28;20049;-79
2023/12/03 08:16:02;;;;;;;20.90;13.05;;;;;;;;;;5039144;28;20040;-80
2023/12/03 08:18:30;;;;;;;20.60;14.52;;;;;;;;;;5028066;28;20045;-80
2023/12/03 08:20:57;;;;;;;20.65;14.32;;;;;;;;;;5061655;28;20037;-80
2023/12/03 08:23:24;;;;;;;21.83;14.43;;;;;;;;;;5060314;28;20052;-80
2023/12/03 08:25:52;;;;;;;20.20;13.45;;;;;;;;;;5031475;28;20530;-80
2023/12/03 08:28:19;;;;;;;16.50;12.23;;;;;;;;;;5043295;28;20041;-80
2023/12/03 08:30:48;;;;;;;17.67;13.80;;;;;;;;;;5040554;28;20048;-80
2023/12/03 08:33:15;;;;;;;23.33;17.20;;;;;;;;;;5028536;28;20049;-80
2023/12/03 08:35:45;;;;;;;24.30;17.20;;;;;;;;;;5048735;28;20056;-80
2023/12/03 08:38:12;;;;;;;19.98;16.13;;;;;;;;;;5050767;28;20064;-80
2023/12/03 08:40:44;;;;;;;21.50;14.27;;;;;;;;;;5035952;28;20057;-80
2023/12/03 08:43:12;;;;;;;16.40;13.82;;;;;;;;;;5054877;28;20065;-80
2023/12/03 08:45:39;;;;;;;19.63;13.48;;;;;;;;;;5045972;28;20051;-80
2023/12/03 08:48:07;;;;;;;21.48;13.43;;;;;;;;;;5035364;28;20049;-80
2023/12/03 08:50:35;;;;;;;19.92;13.35;;;;;;;;;;5043346;28;20472;-81
2023/12/03 08:53:03;;;;;;;18.85;11.73;;;;;;;;;;5038736;28;20051;-81
2023/12/03 08:55:31;;;;;;;16.13;13.18;;;;;;;;;;5044283;28;20055;-79
2023/12/03 08:57:59;;;;;;;16.63;12.35;;;;;;;;;;5033995;28;20049;-80
2023/12/03 09:00:29;;;;;;;19.10;12.00;;;;;;;;;;5030673;28;20059;-80
2023/12/03 09:02:58;;;;;;;15.40;11.20;;;;;;;;;;5040768;28;20049;-79
2023/12/03 09:05:32;;;;;;;17.25;14.18;;;;;;;;;;5046590;28;20048;-80
2023/12/03 09:08:01;;;;;;;20.27;14.02;;;;;;;;;;5053372;28;20060;-81
2023/12/03 09:10:33;;;;;;;17.88;13.40;;;;;;;;;;5053747;28;20037;-81
2023/12/03 09:13:00;;;;;;;15.02;12.02;;;;;;;;;;5034656;28;20057;-80
2023/12/03 09:15:30;;;;;;;16.25;11.65;;;;;;;;;;5048478;28;20038;-81
2023/12/03 09:17:57;;;;;;;16.90;11.02;;;;;;;;;;5033654;28;20049;-81
2023/12/03 09:20:24;;;;;;;17.70;13.68;;;;;;;;;;5045213;28;20045;-81
2023/12/03 09:22:58;;;;;;;16.77;13.30;;;;;;;;;;5053903;28;20029;-81
2023/12/03 09:25:25;;;;;;;16.13;12.52;;;;;;;;;;5053430;28;20053;-81
2023/12/03 09:27:52;;;;;;;15.80;12.50;;;;;;;;;;5029450;28;20053;-81
2023/12/03 09:30:22;;;;;;;17.63;13.88;;;;;;;;;;5033860;28;20053;-81
2023/12/03 09:32:49;;;;;;;13.98;12.05;;;;;;;;;;5054263;28;20046;-81
2023/12/03 09:35:16;;;;;;;17.63;11.98;;;;;;;;;;5018769;28;20060;-81
2023/12/03 09:37:44;;;;;;;14.27;12.18;;;;;;;;;;5053548;28;20045;-81
2023/12/03 09:40:18;;;;;;;17.33;11.95;;;;;;;;;;5059134;28;20041;-80
2023/12/03 09:42:56;;;;;;;14.88;11.77;;;;;;;;;;5033133;28;20041;-80
2023/12/03 09:45:27;;;;;;;13.60;9.10;;;;;;;;;;5050008;28;20420;-80
2023/12/03 09:48:00;;;;;;;16.52;12.35;;;;;;;;;;5065098;28;20049;-80
2023/12/03 09:50:31;;;;;;;24.33;13.05;;;;;;;;;;5067082;28;20395;-81
2023/12/03 09:52:59;;;;;;;17.33;13.45;;;;;;;;;;5040602;28;20052;-80
2023/12/03 09:55:28;;;;;;;15.35;13.40;;;;;;;;;;5050288;28;20067;-80
2023/12/03 09:57:56;;;;;;;15.40;11.20;;;;;;;;;;5043817;28;20048;-80
2023/12/03 10:00:26;;;;;;;16.25;11.45;;;;;;;;;;5033810;28;20045;-80
2023/12/03 10:02:55;;;;;;;19.52;13.70;;;;;;;;;;5051326;28;20053;-80
2023/12/03 10:05:22;;;;;;;14.60;11.32;;;;;;;;;;5037621;28;20057;-80
2023/12/03 10:07:55;;;;;;;16.00;11.23;;;;;;;;;;5058914;28;20057;-80
2023/12/03 10:10:25;;;;;;;16.33;12.27;;;;;;;;;;5044392;28;20053;-80
2023/12/03 10:12:57;;;;;;;18.88;13.80;;;;;;;;;;5040536;28;20125;-80
2023/12/03 10:15:30;;;;;;;14.73;10.93;;;;;;;;;;5049853;28;20349;-80
2023/12/03 10:18:00;;;;;;;16.48;12.88;;;;;;;;;;5049764;28;20044;-80
2023/12/03 10:20:29;;;;;;;13.05;10.80;;;;;;;;;;5046933;28;20048;-80
2023/12/03 10:22:59;;;;;;;17.00;11.90;;;;;;;;;;5061225;28;20045;-79
2023/12/03 10:25:30;;;;;;;14.25;12.07;;;;;;;;;;5045887;28;20056;-79
2023/12/03 10:27:59;;;;;;;15.30;12.27;;;;;;;;;;5066725;28;20053;-80
2023/12/03 10:30:27;;;;;;;15.43;11.95;;;;;;;;;;5062683;28;20403;-80
2023/12/03 10:32:55;;;;;;;18.05;11.40;;;;;;;;;;5042566;28;20041;-80
2023/12/03 10:35:22;;;;;;;12.25;9.75;;;;;;;;;;5063751;28;20048;-79
2023/12/03 10:37:50;;;;;;;14.57;11.07;;;;;;;;;;5022918;28;20050;-80
2023/12/03 10:40:18;;;;;;;13.90;11.05;;;;;;;;;;5046449;28;20042;-80
2023/12/03 10:42:45;;;;;;;17.15;11.52;;;;;;;;;;5046089;28;20045;-80
2023/12/03 10:45:16;;;;;;;15.30;11.25;;;;;;;;;;5062128;28;20049;-80
2023/12/03 10:47:44;;;;;;;13.88;10.55;;;;;;;;;;5045475;28;20049;-80
2023/12/03 10:50:14;;;;;;;15.20;12.30;;;;;;;;;;5064555;28;20041;-80
2023/12/03 10:52:41;;;;;;;14.30;9.73;;;;;;;;;;5044563;28;20049;-80
2023/12/03 10:55:11;;;;;;;15.50;11.57;;;;;;;;;;5046083;28;20431;-80
2023/12/03 10:57:46;;;;;;;13.43;10.23;;;;;;;;;;5040880;28;20049;-80
2023/12/03 11:00:18;;;;;;;15.55;11.38;;;;;;;;;;5028386;28;20053;-81
2023/12/03 11:02:46;;;;;;;13.77;9.68;;;;;;;;;;5043712;28;20045;-80
2023/12/03 11:05:19;;;;;;;13.43;9.95;;;;;;;;;;5030180;28;20052;-80
2023/12/03 11:07:49;;;;;;;13.52;10.20;;;;;;;;;;5062803;28;20052;-80
2023/12/03 11:10:22;;;;;;;13.60;10.82;;;;;;;;;;5047418;28;20048;-80
2023/12/03 11:12:50;;;;;;;14.70;10.23;;;;;;;;;;5039184;28;20051;-80
2023/12/03 11:15:21;;;;;;;13.18;10.38;;;;;;;;;;5040539;28;20077;-80
2023/12/03 11:17:50;;;;;;;14.30;10.43;;;;;;;;;;5045295;28;20041;-80
2023/12/03 11:20:21;;;;;;;15.88;11.70;;;;;;;;;;5028056;28;20056;-80
2023/12/03 11:22:59;;;;;;;14.75;9.95;;;;;;;;;;5023181;28;20408;-80
2023/12/03 11:25:31;;;;;;;14.48;10.32;;;;;;;;;;5042788;28;20037;-81
2023/12/03 11:28:00;;;;;;;16.02;10.88;;;;;;;;;;5042140;28;20388;-81
2023/12/03 11:30:38;;;;;;;12.55;10.23;;;;;;;;;;5042929;28;20045;-81
2023/12/03 11:33:08;;;;;;;12.85;10.32;;;;;;;;;;5055423;28;20364;-81
2023/12/03 11:35:36;;;;;;;12.27;9.90;;;;;;;;;;5033150;28;20049;-80
2023/12/03 11:38:09;;;;;;;13.00;9.65;;;;;;;;;;5057846;28;20056;-80
2023/12/03 11:40:36;;;;;;;12.27;9.00;;;;;;;;;;5044374;28;20049;-80
2023/12/03 11:43:05;;;;;;;11.85;8.82;;;;;;;;;;5044697;28;20053;-81
2023/12/03 11:45:43;;;;;;;12.13;9.20;;;;;;;;;;5029974;28;20403;-81
2023/12/03 11:48:11;;;;;;;12.55;9.88;;;;;;;;;;5017934;28;20053;-81
2023/12/03 11:50:40;;;;;;;13.55;10.40;;;;;;;;;;5029543;28;20045;-81
2023/12/03 11:53:12;;;;;;;17.42;12.32;;;;;;;;;;5023483;28;20045;-80
2023/12/03 11:55:41;;;;;;;11.43;9.35;;;;;;;;;;5045319;28;20053;-80
2023/12/03 11:58:09;;;;;;;14.88;10.35;;;;;;;;;;5041955;28;20593;-81
2023/12/03 12:00:45;;;;;;;12.93;9.57;;;;;;;;;;5041857;28;20503;-80
2023/12/03 12:03:12;;;;;;;;;;;;;;;;;;5036876;28;20041;-80
2023/12/03 12:05:44;;;;;;;13.85;10.02;;;;;;;;;;5035043;28;19928;-80
2023/12/03 12:08:21;;;;;;;13.57;9.35;;;;;;;;;;5046435;28;20041;-80
2023/12/03 12:10:51;;;;;;;13.85;9.88;;;;;;;;;;5019672;28;20049;-80
2023/12/03 12:13:20;;;;;;;10.80;7.63;;;;;;;;;;5042783;28;20045;-80
2023/12/03 12:15:49;;;;;;;15.35;11.23;;;;;;;;;;5051191;28;20036;-80
2023/12/03 12:18:22;;;;;;;11.50;10.13;;;;;;;;;;5045195;28;20584;-80
2023/12/03 12:20:49;;;;;;;11.60;9.75;;;;;;;;;;5053981;28;20042;-80
2023/12/03 12:23:17;;;;;;;12.52;9.13;;;;;;;;;;5033499;28;20045;-80
2023/12/03 12:25:44;;;;;;;12.23;8.57;;;;;;;;;;5058986;28;20053;-80
2023/12/03 12:28:15;;;;;;;13.27;11.43;;;;;;;;;;5030369;28;20441;-80
2023/12/03 12:30:42;;;;;;;12.30;10.38;;;;;;;;;;5027802;28;20063;-80
2023/12/03 12:33:11;;;;;;;12.25;9.23;;;;;;;;;;5056582;28;20049;-80
2023/12/03 12:35:38;;;;;;;12.95;7.97;;;;;;;;;;5016907;28;20411;-80
2023/12/03 12:38:06;;;;;;;12.98;10.00;;;;;;;;;;5035907;28;20345;-80
2023/12/03 12:40:38;;;;;;;9.95;8.50;;;;;;;;;;5050149;28;20048;-79
2023/12/03 12:43:08;;;;;;;12.63;9.60;;;;;;;;;;5027949;28;20052;-79
2023/12/03 12:45:39;;;;;;;12.27;9.15;;;;;;;;;;5048598;28;20048;-80
2023/12/03 12:48:24;;;;;;;12.73;9.32;;;;;;;;;;5043529;28;20045;-80
2023/12/03 12:50:53;;;;;;;12.52;9.02;;;;;;;;;;5047498;28;20052;-80
2023/12/03 12:53:20;;;;;;;12.32;9.27;;;;;;;;;;5030275;28;20053;-80
2023/12/03 12:55:50;;;;;;;11.52;8.10;;;;;;;;;;5019386;28;20056;-80
2023/12/03 12:58:19;;;;;;;16.95;10.55;;;;;;;;;;5053308;28;20048;-81
2023/12/03 13:00:47;;;;;;;9.75;8.57;;;;;;;;;;5034987;28;20507;-81
2023/12/03 13:03:14;;;;;;;12.88;8.10;;;;;;;;;;4997823;28;20065;-80
2023/12/03 13:05:44;;;;;;;10.07;8.18;;;;;;;;;;5008138;28;20053;-80
2023/12/03 13:08:11;;;;;;;12.15;8.23;;;;;;;;;;5033777;28;20064;-80
2023/12/03 13:10:41;;;;;;;11.00;9.52;;;;;;;;;;5038842;28;20053;-80
2023/12/03 13:13:11;;;;;;;12.02;7.28;;;;;;;;;;5009251;28;20048;-80
2023/12/03 13:15:41;;;;;;;11.73;9.77;;;;;;;;;;5015274;28;20049;-80
2023/12/03 13:18:08;;;;;;;12.65;9.30;;;;;;;;;;5043906;28;20056;-80
2023/12/03 13:20:35;;;;;;;10.57;8.13;;;;;;;;;;5049708;28;20056;-80
2023/12/03 13:23:04;;;;;;;13.05;9.60;;;;;;;;;;5027092;28;20076;-81
2023/12/03 13:25:34;;;;;;;12.57;9.27;;;;;;;;;;5044334;28;20052;-80
2023/12/03 13:28:02;;;;;;;13.32;8.98;;;;;;;;;;5034444;28;20495;-80
2023/12/03 13:30:31;;;;;;;14.27;9.88;;;;;;;;;;5053389;28;20048;-81
2023/12/03 13:32:59;;;;;;;10.02;7.75;;;;;;;;;;5041396;28;20522;-81
2023/12/03 13:35:31;;;;;;;10.15;6.97;;;;;;;;;;5055774;28;20040;-81
2023/12/03 13:37:58;;;;;;;12.52;8.68;;;;;;;;;;5049388;28;20045;-80
2023/12/03 13:40:29;;;;;;;13.60;8.48;;;;;;;;;;5059847;22;20053;-80
2023/12/03 13:42:56;;;;;;;11.50;9.00;;;;;;;;;;5036712;28;20041;-80
2023/12/03 13:45:23;;;;;;;10.88;8.25;;;;;;;;;;5033552;28;20051;-80
2023/12/03 13:47:51;;;;;;;15.05;10.93;;;;;;;;;;5019064;28;20056;-80
2023/12/03 13:50:18;;;;;;;13.48;11.02;;;;;;;;;;5014633;28;20053;-80
2023/12/03 13:52:45;;;;;;;10.98;8.38;;;;;;;;;;5039972;28;20407;-80
2023/12/03 13:55:13;;;;;;;11.40;7.32;;;;;;;;;;5033812;28;20040;-80
2023/12/03 13:57:46;;;;;;;12.18;7.65;;;;;;;;;;5009490;28;20055;-80
2023/12/03 14:00:14;;;;;;;8.80;7.50;;;;;;;;;;5020855;28;20048;-80
2023/12/03 14:02:46;;;;;;;10.98;8.15;;;;;;;;;;5038183;28;20048;-80
2023/12/03 14:05:13;;;;;;;11.75;8.85;;;;;;;;;;5015378;28;20052;-80
2023/12/03 14:07:43;;;;;;;13.18;8.48;;;;;;;;;;5002125;28;20053;-80
2023/12/03 14:10:11;;;;;;;11.25;9.55;;;;;;;;;;5018078;28;20053;-79
2023/12/03 14:12:38;;;;;;;11.93;9.10;;;;;;;;;;5020437;28;20060;-79
2023/12/03 14:15:08;;;;;;;10.15;8.90;;;;;;;;;;5035498;28;20044;-79
2023/12/03 14:17:35;;;;;;;11.88;8.38;;;;;;;;;;5017713;28;20041;-79
2023/12/03 14:20:04;;;;;;;14.02;11.10;;;;;;;;;;5035161;28;20037;-79
2023/12/03 14:22:35;;;;;;;13.00;9.45;;;;;;;;;;5017493;28;20045;-79
2023/12/03 14:25:06;;;;;;;12.23;9.43;;;;;;;;;;5016756;28;20048;-79
2023/12/03 14:27:35;;;;;;;12.60;9.73;;;;;;;;;;5033802;28;20068;-79
2023/12/03 14:30:03;;;;;;;13.57;9.80;;;;;;;;;;5018280;28;20046;-79
2023/12/03 14:32:36;;;;;;;14.65;9.70;;;;;;;;;;5017913;28;20049;-79
2023/12/03 14:35:04;;;;;;;12.73;8.82;;;;;;;;;;5005890;28;20504;-79
2023/12/03 14:37:32;;;;;;;14.50;9.50;;;;;;;;;;5005226;28;20068;-79
2023/12/03 14:39:59;;;;;;;13.32;9.43;;;;;;;;;;5005091;28;20431;-79
2023/12/03 14:42:29;;;;;;;13.27;9.60;;;;;;;;;;5021923;28;20056;-79
2023/12/03 14:44:56;;;;;;;13.50;9.90;;;;;;;;;;5019886;28;20060;-79
2023/12/03 14:47:23;;;;;;;17.40;12.80;;;;;;;;;;5022427;28;20061;-79
2023/12/03 14:49:52;;;;;;;14.23;10.23;;;;;;;;;;5021479;28;20499;-79
2023/12/03 14:52:22;;;;;;;12.25;10.27;;;;;;;;;;5038393;28;20060;-79
2023/12/03 14:54:49;;;;;;;13.43;9.80;;;;;;;;;;5023823;28;20048;-79
2023/12/03 14:57:16;;;;;;;13.35;10.05;;;;;;;;;;5024441;28;20388;-79
2023/12/03 14:59:44;;;;;;;12.43;10.27;;;;;;;;;;5027652;28;20403;-79
2023/12/03 15:02:11;;;;;;;13.15;10.75;;;;;;;;;;5012420;28;20060;-79
2023/12/03 15:04:38;;;;;;;13.60;11.20;;;;;;;;;;5027651;28;20061;-80
2023/12/03 15:07:09;;;;;;;12.32;9.80;;;;;;;;;;5026732;28;20065;-80
2023/12/03 15:09:36;;;;;;;12.10;9.88;;;;;;;;;;5020100;28;20060;-80
2023/12/03 15:12:05;;;;;;;14.55;11.15;;;;;;;;;;5036500;28;20041;-80
2023/12/03 15:14:34;;;;;;;17.60;12.85;;;;;;;;;;5036214;28;20559;-80
2023/12/03 15:17:03;;;;;;;15.50;12.02;;;;;;;;;;5019731;28;20049;-80
2023/12/03 15:19:33;;;;;;;12.15;10.05;;;;;;;;;;5018316;28;20052;-80
2023/12/03 15:22:02;;;;;;;13.05;11.05;;;;;;;;;;5036764;28;20048;-80
2023/12/03 15:24:31;;;;;;;12.45;9.88;;;;;;;;;;5002504;28;20050;-80
2023/12/03 15:26:58;;;;;;;15.40;10.77;;;;;;;;;;5018071;28;20060;-80
2023/12/03 15:29:25;;;;;;;13.77;10.45;;;;;;;;;;5005097;28;20049;-80
2023/12/03 15:31:55;;;;;;;12.43;9.82;;;;;;;;;;5020527;28;20500;-80
2023/12/03 15:34:22;;;;;;;13.20;9.10;;;;;;;;;;5020369;28;20511;-80
2023/12/03 15:36:50;;;;;;;15.57;9.38;;;;;;;;;;5020464;28;20045;-80
2023/12/03 15:39:17;;;;;;;12.57;8.82;;;;;;;;;;5020566;28;20041;-80
2023/12/03 15:41:46;;;;;;;11.80;7.88;;;;;;;;;;5017462;28;20057;-80
2023/12/03 15:44:15;;;;;;;13.20;9.20;;;;;;;;;;5021202;28;20057;-80
2023/12/03 15:46:45;;;;;;;10.23;8.10;;;;;;;;;;5004638;28;20037;-80
2023/12/03 15:49:12;;;;;;;15.60;9.68;;;;;;;;;;5021833;28;20057;-80
2023/12/03 15:51:42;;;;;;;10.40;7.88;;;;;;;;;;5021441;28;20057;-80
2023/12/03 15:54:10;;;;;;;9.65;8.10;;;;;;;;;;5021968;28;20049;-81
2023/12/03 15:56:37;;;;;;;11.57;8.63;;;;;;;;;;5019395;28;20045;-80
2023/12/03 15:59:08;;;;;;;11.18;9.07;;;;;;;;;;5037989;28;20048;-80
2023/12/03 16:01:40;;;;;;;11.30;8.48;;;;;;;;;;5021088;28;20531;-80
2023/12/03 16:04:07;;;;;;;11.85;10.13;;;;;;;;;;5004345;28;20060;-80
2023/12/03 16:06:34;;;;;;;11.57;9.45;;;;;;;;;;5005116;28;20388;-80
2023/12/03 16:09:04;;;;;;;11.00;9.00;;;;;;;;;;5007738;28;20507;-80
2023/12/03 16:11:33;;;;;;;9.57;7.30;;;;;;;;;;5023629;28;20064;-80
2023/12/03 16:14:01;;;;;;;10.80;8.82;;;;;;;;;;5025323;28;20404;-80
2023/12/03 16:16:29;;;;;;;9.48;7.93;;;;;;;;;;5006454;28;20054;-80
2023/12/03 16:19:01;;;;;;;9.40;8.43;;;;;;;;;;5004645;28;20052;-80
2023/12/03 16:21:30;;;;;;;8.82;6.68;;;;;;;;;;5007220;28;20068;-80
2023/12/03 16:23:58;;;;;;;10.90;9.52;;;;;;;;;;5025503;28;20045;-80
2023/12/03 16:26:25;;;;;;;11.88;9.05;;;;;;;;;;5009021;28;20053;-80
2023/12/03 16:28:52;;;;;;;7.47;6.75;;;;;;;;;;5006327;28;20050;-80